createdAt,value
2018-11-03T00:00:27.798Z,6.30
2018-11-03T00:02:55.266Z,5.77
2018-11-03T00:05:22.798Z,4.90
2018-11-03T00:07:50.322Z,5.83
2018-11-03T00:10:17.805Z,8.23
2018-11-03T00:12:45.289Z,9.37
2018-11-03T00:15:12.842Z,7.70
2018-11-03T00:17:40.221Z,5.20
2018-11-03T00:20:07.681Z,3.57
2018-11-03T00:22:35.231Z,7.43
2018-11-03T00:25:02.944Z,4.17
2018-11-03T00:27:30.595Z,3.97
2018-11-03T00:29:58.123Z,8.30
2018-11-03T00:32:25.883Z,5.27
2018-11-03T00:34:53.422Z,5.10
2018-11-03T00:37:21.078Z,5.40
2018-11-03T00:39:48.570Z,6.90
2018-11-03T00:42:16.224Z,6.53
2018-11-03T00:44:43.782Z,6.27
2018-11-03T00:47:11.206Z,5.40
2018-11-03T00:49:38.785Z,5.37
2018-11-03T00:52:06.312Z,4.90
2018-11-03T00:54:33.816Z,5.77
2018-11-03T00:57:01.244Z,4.40
2018-11-03T00:59:28.768Z,11.07
2018-11-03T01:01:56.295Z,6.77
2018-11-03T01:04:23.845Z,10.77
2018-11-03T01:06:51.338Z,5.53
2018-11-03T01:09:18.826Z,6.40
2018-11-03T01:11:46.538Z,6.80
2018-11-03T01:14:14.128Z,9.63
2018-11-03T01:16:41.624Z,7.40
2018-11-03T01:19:09.359Z,8.57
2018-11-03T01:21:36.950Z,7.37
2018-11-03T01:24:04.926Z,4.73
2018-11-03T01:26:32.427Z,6.10
2018-11-03T01:29:00.342Z,7.40
2018-11-03T01:31:27.804Z,7.20
2018-11-03T01:33:55.359Z,9.30
2018-11-03T01:36:23.183Z,5.00
2018-11-03T01:38:50.662Z,5.97
2018-11-03T01:41:18.168Z,10.40
2018-11-03T01:43:45.628Z,5.80
2018-11-03T01:46:13.088Z,7.50
2018-11-03T01:48:40.761Z,6.60
2018-11-03T01:51:08.260Z,7.40
2018-11-03T01:53:35.686Z,9.70
2018-11-03T01:56:03.162Z,5.80
2018-11-03T01:58:30.670Z,4.90
2018-11-03T02:00:58.224Z,5.97
2018-11-03T02:03:25.641Z,6.20
2018-11-03T02:05:53.112Z,9.97
2018-11-03T02:08:20.564Z,7.30
2018-11-03T02:10:48.052Z,16.53
2018-11-03T02:13:15.484Z,11.37
2018-11-03T02:15:43.080Z,9.70
2018-11-03T02:18:10.536Z,9.30
2018-11-03T02:20:38.139Z,9.97
2018-11-03T02:23:05.570Z,7.07
2018-11-03T02:25:33.054Z,5.97
2018-11-03T02:28:00.511Z,8.90
2018-11-03T02:30:28.002Z,7.40
2018-11-03T02:32:55.399Z,8.17
2018-11-03T02:35:22.898Z,7.90
2018-11-03T02:37:50.474Z,9.10
2018-11-03T02:40:18.006Z,10.93
2018-11-03T02:42:45.463Z,8.70
2018-11-03T02:45:12.893Z,7.73
2018-11-03T02:47:40.853Z,13.70
2018-11-03T02:50:10.598Z,7.83
2018-11-03T02:52:38.046Z,7.90
2018-11-03T02:55:05.616Z,14.30
2018-11-03T02:57:33.314Z,13.33
2018-11-03T03:00:00.873Z,13.73
2018-11-03T03:02:28.339Z,11.70
2018-11-03T03:04:55.798Z,15.77
2018-11-03T03:07:23.323Z,9.20
2018-11-03T03:09:50.720Z,14.30
2018-11-03T03:12:18.181Z,10.87
2018-11-03T03:14:45.600Z,13.30
2018-11-03T03:17:13.171Z,17.87
2018-11-03T03:19:40.649Z,13.50
2018-11-03T03:22:08.218Z,10.53
2018-11-03T03:24:35.638Z,18.43
2018-11-03T03:27:03.202Z,19.13
2018-11-03T03:29:30.653Z,15.00
2018-11-03T03:31:58.078Z,9.20
2018-11-03T03:34:25.519Z,19.20
2018-11-03T03:36:53.086Z,17.20
2018-11-03T03:39:20.508Z,15.60
2018-11-03T03:41:47.958Z,17.30
2018-11-03T03:44:15.449Z,12.57
2018-11-03T03:46:42.905Z,12.10
2018-11-03T03:49:10.346Z,8.30
2018-11-03T03:51:37.778Z,11.20
2018-11-03T03:54:05.186Z,15.50
2018-11-03T03:56:32.759Z,11.10
2018-11-03T03:59:00.384Z,13.40
2018-11-03T04:01:27.818Z,15.00
2018-11-03T04:03:55.384Z,16.70
2018-11-03T04:06:22.957Z,13.73
2018-11-03T04:08:50.476Z,13.43
2018-11-03T04:11:17.949Z,12.33
2018-11-03T04:13:45.778Z,18.27
2018-11-03T04:16:13.210Z,16.40
2018-11-03T04:18:40.727Z,13.03
2018-11-03T04:21:08.320Z,11.23
2018-11-03T04:23:35.742Z,12.37
2018-11-03T04:26:03.354Z,15.03
2018-11-03T04:28:30.778Z,17.93
2018-11-03T04:30:58.217Z,14.63
2018-11-03T04:33:25.710Z,13.80
2018-11-03T04:35:53.124Z,13.60
2018-11-03T04:38:20.500Z,12.40
2018-11-03T04:40:47.981Z,14.20
2018-11-03T04:43:15.507Z,17.63
2018-11-03T04:45:42.946Z,19.17
2018-11-03T04:48:10.366Z,16.90
2018-11-03T04:50:37.882Z,15.80
2018-11-03T04:53:05.375Z,17.77
2018-11-03T04:55:32.890Z,25.43
2018-11-03T04:58:00.502Z,13.30
2018-11-03T05:00:27.943Z,15.43
2018-11-03T05:02:55.373Z,15.23
2018-11-03T05:05:22.859Z,15.27
2018-11-03T05:07:50.270Z,11.30
2018-11-03T05:10:18.009Z,18.00
2018-11-03T05:12:45.404Z,19.10
2018-11-03T05:15:12.884Z,13.40
2018-11-03T05:17:40.341Z,16.70
2018-11-03T05:20:08.121Z,13.67
2018-11-03T05:22:35.634Z,13.87
2018-11-03T05:25:03.334Z,12.80
2018-11-03T05:27:30.830Z,12.90
2018-11-03T05:29:58.299Z,10.53
2018-11-03T05:32:25.796Z,17.10
2018-11-03T05:34:53.272Z,16.10
2018-11-03T05:37:20.730Z,14.70
2018-11-03T05:39:48.185Z,26.57
2018-11-03T05:42:15.629Z,19.23
2018-11-03T05:44:44.008Z,19.27
2018-11-03T05:47:11.722Z,15.03
2018-11-03T05:49:39.107Z,12.80
2018-11-03T05:52:06.541Z,12.20
2018-11-03T05:54:34.043Z,13.67
2018-11-03T05:57:01.534Z,14.93
2018-11-03T05:59:29.095Z,17.00
2018-11-03T06:01:56.675Z,14.87
2018-11-03T06:04:24.119Z,17.40
2018-11-03T06:06:51.758Z,19.63
2018-11-03T06:09:19.389Z,18.63
2018-11-03T06:11:46.842Z,18.40
2018-11-03T06:14:14.296Z,17.70
2018-11-03T06:16:42.246Z,22.60
2018-11-03T06:19:09.714Z,16.60
2018-11-03T06:21:37.184Z,19.03
2018-11-03T06:24:04.750Z,20.07
2018-11-03T06:26:32.228Z,15.83
2018-11-03T06:29:00.009Z,17.00
2018-11-03T06:31:27.720Z,15.70
2018-11-03T06:33:55.230Z,17.20
2018-11-03T06:36:22.670Z,19.80
2018-11-03T06:38:50.201Z,15.80
2018-11-03T06:41:17.810Z,17.83
2018-11-03T06:43:45.337Z,15.20
2018-11-03T06:46:12.946Z,18.57
2018-11-03T06:48:40.407Z,16.57
2018-11-03T06:51:07.915Z,13.60
2018-11-03T06:53:35.437Z,14.83
2018-11-03T06:56:03.084Z,14.53
2018-11-03T06:58:30.628Z,21.40
2018-11-03T07:00:58.278Z,15.70
2018-11-03T07:03:25.786Z,15.70
2018-11-03T07:05:53.537Z,18.57
2018-11-03T07:08:21.301Z,16.23
2018-11-03T07:10:48.756Z,19.00
2018-11-03T07:13:16.475Z,15.60
2018-11-03T07:15:43.927Z,15.27
2018-11-03T07:18:11.331Z,14.17
2018-11-03T07:20:38.963Z,14.73
2018-11-03T07:23:06.593Z,13.73
2018-11-03T07:25:34.137Z,15.47
2018-11-03T07:28:01.589Z,20.03
2018-11-03T07:30:29.117Z,13.30
2018-11-03T07:32:56.607Z,11.80
2018-11-03T07:35:24.111Z,13.87
2018-11-03T07:37:51.589Z,14.37
2018-11-03T07:40:19.111Z,10.97
2018-11-03T07:42:46.771Z,14.83
2018-11-03T07:45:14.387Z,10.53
2018-11-03T07:47:41.935Z,12.17
2018-11-03T07:50:11.120Z,14.50
2018-11-03T07:52:38.641Z,13.50
2018-11-03T07:55:07.553Z,15.80
2018-11-03T07:57:35.135Z,13.30
2018-11-03T08:00:02.693Z,15.47
2018-11-03T08:02:30.117Z,14.17
2018-11-03T08:04:57.537Z,17.57
2018-11-03T08:07:25.301Z,19.53
2018-11-03T08:09:52.947Z,13.57
2018-11-03T08:12:20.495Z,14.17
2018-11-03T08:14:47.943Z,14.53
2018-11-03T08:17:15.394Z,16.73
2018-11-03T08:19:43.052Z,13.63
2018-11-03T08:22:10.604Z,17.67
2018-11-03T08:24:38.075Z,16.07
2018-11-03T08:27:06.396Z,17.23
2018-11-03T08:29:33.911Z,14.90
2018-11-03T08:32:01.651Z,19.00
2018-11-03T08:34:29.142Z,13.70
2018-11-03T08:36:56.713Z,16.70
2018-11-03T08:39:24.361Z,17.37
2018-11-03T08:41:51.933Z,11.30
2018-11-03T08:44:19.377Z,17.20
2018-11-03T08:46:46.911Z,14.37
2018-11-03T08:49:14.391Z,18.73
2018-11-03T08:51:42.114Z,17.43
2018-11-03T08:54:09.573Z,14.00
2018-11-03T08:56:37.137Z,17.23
2018-11-03T08:59:05.231Z,26.77
2018-11-03T09:01:32.718Z,15.10
2018-11-03T09:04:00.249Z,26.53
2018-11-03T09:06:27.762Z,21.43
2018-11-03T09:08:55.258Z,16.53
2018-11-03T09:11:22.931Z,15.23
2018-11-03T09:13:50.445Z,15.97
2018-11-03T09:16:17.945Z,15.90
2018-11-03T09:18:45.482Z,18.90
2018-11-03T09:21:13.090Z,17.80
2018-11-03T09:23:40.563Z,15.23
2018-11-03T09:26:08.080Z,18.57
2018-11-03T09:28:35.581Z,18.30
2018-11-03T09:31:03.151Z,16.30
2018-11-03T09:33:30.565Z,17.17
2018-11-03T09:35:58.417Z,21.57
2018-11-03T09:38:26.016Z,17.33
2018-11-03T09:40:53.506Z,15.57
2018-11-03T09:43:21.068Z,13.93
2018-11-03T09:45:48.558Z,17.20
2018-11-03T09:48:15.977Z,14.77
2018-11-03T09:50:43.620Z,14.93
2018-11-03T09:53:10.941Z,15.60
2018-11-03T09:55:38.515Z,21.03
2018-11-03T09:58:06.190Z,15.40
2018-11-03T10:00:33.839Z,18.83
2018-11-03T10:03:01.305Z,17.30
2018-11-03T10:05:28.857Z,23.53
2018-11-03T10:07:57.743Z,17.00
2018-11-03T10:10:25.322Z,18.70
2018-11-03T10:12:52.882Z,15.53
2018-11-03T10:15:20.489Z,16.07
2018-11-03T10:17:47.985Z,18.27
2018-11-03T10:20:15.614Z,20.90
2018-11-03T10:22:43.193Z,19.03
2018-11-03T10:25:15.827Z,17.10
2018-11-03T10:27:44.160Z,15.77
2018-11-03T10:30:13.139Z,18.43
2018-11-03T10:32:41.309Z,19.27
2018-11-03T10:35:09.872Z,17.23
2018-11-03T10:37:37.321Z,18.63
2018-11-03T10:40:06.961Z,19.50
2018-11-03T10:42:34.441Z,16.00
2018-11-03T10:45:02.194Z,27.13
2018-11-03T10:47:29.675Z,18.87
2018-11-03T10:49:57.361Z,16.13
2018-11-03T10:52:24.867Z,19.27
2018-11-03T10:54:52.345Z,15.53
2018-11-03T10:57:19.920Z,17.67
2018-11-03T10:59:47.375Z,25.13
2018-11-03T11:02:20.735Z,16.80
2018-11-03T11:04:53.787Z,15.37
2018-11-03T11:07:26.931Z,17.60
2018-11-03T11:09:59.967Z,15.63
2018-11-03T11:12:36.233Z,21.53
2018-11-03T11:15:03.902Z,17.13
2018-11-03T11:17:31.595Z,17.37
2018-11-03T11:19:59.169Z,22.13
2018-11-03T11:22:26.901Z,20.40
2018-11-03T11:24:54.477Z,14.97
2018-11-03T11:27:22.194Z,23.67
2018-11-03T11:29:49.961Z,21.27
2018-11-03T11:32:17.484Z,18.13
2018-11-03T11:34:45.032Z,15.53
2018-11-03T11:37:12.599Z,18.47
2018-11-03T11:39:40.153Z,16.23
2018-11-03T11:42:07.770Z,18.10
2018-11-03T11:44:35.452Z,17.00
2018-11-03T11:47:03.176Z,18.27
2018-11-03T11:49:30.710Z,15.20
2018-11-03T11:51:58.205Z,16.93
2018-11-03T11:54:25.937Z,17.87
2018-11-03T11:56:53.503Z,17.00
2018-11-03T11:59:20.940Z,16.30
2018-11-03T12:01:48.841Z,15.40
2018-11-03T12:04:16.303Z,14.57
2018-11-03T12:06:43.866Z,15.27
2018-11-03T12:09:11.330Z,18.47
2018-11-03T12:11:38.921Z,17.40
2018-11-03T12:14:06.798Z,17.67
2018-11-03T12:16:34.412Z,20.77
2018-11-03T12:19:02.105Z,17.50
2018-11-03T12:21:29.616Z,29.70
2018-11-03T12:23:57.242Z,13.70
2018-11-03T12:26:24.852Z,19.40
2018-11-03T12:28:52.440Z,14.63
2018-11-03T12:31:20.015Z,19.30
2018-11-03T12:33:47.634Z,15.03
2018-11-03T12:36:15.091Z,19.83
2018-11-03T12:38:42.940Z,14.40
2018-11-03T12:41:10.525Z,15.03
2018-11-03T12:43:38.080Z,17.30
2018-11-03T12:46:05.672Z,16.70
2018-11-03T12:48:33.167Z,18.60
2018-11-03T12:51:00.682Z,15.07
2018-11-03T12:53:28.242Z,16.80
2018-11-03T12:55:55.747Z,14.03
2018-11-03T12:58:23.253Z,14.07
2018-11-03T13:00:50.816Z,16.90
2018-11-03T13:03:18.339Z,17.60
2018-11-03T13:05:45.918Z,15.57
2018-11-03T13:08:13.525Z,12.10
2018-11-03T13:10:40.984Z,16.40
2018-11-03T13:13:08.443Z,19.27
2018-11-03T13:15:35.910Z,15.40
2018-11-03T13:18:03.579Z,19.10
2018-11-03T13:20:31.062Z,13.00
2018-11-03T13:22:58.871Z,16.63
2018-11-03T13:25:26.461Z,23.43
2018-11-03T13:27:54.116Z,14.47
2018-11-03T13:30:21.577Z,16.10
2018-11-03T13:32:49.271Z,17.73
2018-11-03T13:35:16.963Z,13.27
2018-11-03T13:37:44.414Z,12.30
2018-11-03T13:40:13.066Z,14.20
2018-11-03T13:42:40.904Z,15.07
2018-11-03T13:45:09.062Z,24.07
2018-11-03T13:47:37.604Z,19.00
2018-11-03T13:50:10.581Z,14.73
2018-11-03T13:52:38.061Z,13.70
2018-11-03T13:55:06.386Z,15.30
2018-11-03T13:57:33.885Z,21.70
2018-11-03T14:00:01.368Z,18.07
2018-11-03T14:02:28.852Z,15.73
2018-11-03T14:04:56.349Z,14.43
2018-11-03T14:07:23.922Z,16.10
2018-11-03T14:09:51.410Z,13.83
2018-11-03T14:12:18.995Z,19.93
2018-11-03T14:14:46.538Z,13.73
2018-11-03T14:17:14.254Z,13.17
2018-11-03T14:19:41.710Z,16.63
2018-11-03T14:22:09.170Z,18.77
2018-11-03T14:24:36.687Z,15.73
2018-11-03T14:27:04.203Z,13.37
2018-11-03T14:29:31.644Z,13.63
2018-11-03T14:31:59.181Z,12.87
2018-11-03T14:34:26.685Z,17.13
2018-11-03T14:36:54.267Z,12.43
2018-11-03T14:39:21.749Z,19.07
2018-11-03T14:41:49.626Z,14.00
2018-11-03T14:44:17.074Z,14.50
2018-11-03T14:46:44.880Z,14.50
2018-11-03T14:49:12.653Z,17.70
2018-11-03T14:51:40.212Z,11.00
2018-11-03T14:54:07.966Z,13.77
2018-11-03T14:56:35.739Z,13.30
2018-11-03T14:59:03.194Z,18.80
2018-11-03T15:01:30.839Z,20.43
2018-11-03T15:03:58.363Z,14.93
2018-11-03T15:06:25.938Z,16.80
2018-11-03T15:08:53.429Z,15.80
2018-11-03T15:11:20.939Z,11.43
2018-11-03T15:13:48.524Z,15.13
2018-11-03T15:16:15.950Z,12.90
2018-11-03T15:18:43.475Z,11.23
2018-11-03T15:21:11.069Z,13.47
2018-11-03T15:23:38.586Z,13.37
2018-11-03T15:26:06.067Z,15.53
2018-11-03T15:28:33.513Z,15.47
2018-11-03T15:31:01.069Z,14.90
2018-11-03T15:33:28.507Z,17.90
2018-11-03T15:35:56.033Z,11.43
2018-11-03T15:38:23.699Z,13.60
2018-11-03T15:40:51.308Z,10.80
2018-11-03T15:43:18.945Z,12.37
2018-11-03T15:45:46.577Z,17.87
2018-11-03T15:48:14.135Z,11.47
2018-11-03T15:50:47.716Z,11.20
2018-11-03T15:53:15.282Z,13.73
2018-11-03T15:55:42.774Z,11.57
2018-11-03T15:58:10.324Z,13.90
2018-11-03T16:00:38.040Z,17.33
2018-11-03T16:03:05.552Z,17.90
2018-11-03T16:05:33.112Z,11.87
2018-11-03T16:08:00.528Z,21.63
2018-11-03T16:10:28.097Z,14.73
2018-11-03T16:12:55.574Z,14.57
2018-11-03T16:15:23.128Z,18.30
2018-11-03T16:17:50.564Z,12.53
2018-11-03T16:20:18.054Z,13.83
2018-11-03T16:22:45.596Z,13.20
2018-11-03T16:25:13.112Z,16.83
2018-11-03T16:27:40.848Z,14.60
2018-11-03T16:30:11.034Z,13.93
2018-11-03T16:32:38.646Z,15.63
2018-11-03T16:35:06.396Z,12.50
2018-11-03T16:37:33.930Z,16.73
2018-11-03T16:40:01.439Z,11.73
2018-11-03T16:42:28.982Z,23.50
2018-11-03T16:44:56.508Z,16.37
2018-11-03T16:47:24.372Z,15.30
2018-11-03T16:49:51.842Z,16.30
2018-11-03T16:52:19.437Z,14.23
2018-11-03T16:54:47.057Z,17.50
2018-11-03T16:57:14.580Z,16.90
2018-11-03T16:59:42.040Z,15.13
2018-11-03T17:02:09.506Z,15.57
2018-11-03T17:04:37.106Z,20.83
2018-11-03T17:07:04.940Z,15.60
2018-11-03T17:09:32.515Z,19.50
2018-11-03T17:12:00.385Z,19.37
2018-11-03T17:14:28.256Z,16.90
2018-11-03T17:16:55.738Z,15.73
2018-11-03T17:19:23.306Z,17.10
2018-11-03T17:21:57.464Z,18.50
2018-11-03T17:24:25.137Z,17.47
2018-11-03T17:26:52.607Z,17.10
2018-11-03T17:29:20.167Z,12.53
2018-11-03T17:31:47.648Z,24.83
2018-11-03T17:34:15.137Z,18.37
2018-11-03T17:36:42.719Z,14.47
2018-11-03T17:39:11.251Z,17.53
2018-11-03T17:41:38.775Z,16.27
2018-11-03T17:44:06.737Z,17.07
2018-11-03T17:46:34.691Z,16.40
2018-11-03T17:49:02.184Z,17.03
2018-11-03T17:51:29.626Z,17.80
2018-11-03T17:53:57.295Z,16.67
2018-11-03T17:56:24.907Z,17.90
2018-11-03T17:58:52.391Z,18.00
2018-11-03T18:01:20.023Z,17.80
2018-11-03T18:03:47.555Z,18.97
2018-11-03T18:06:15.101Z,17.70
2018-11-03T18:08:42.767Z,21.90
2018-11-03T18:13:44.760Z,19.10
2018-11-03T18:16:12.304Z,16.73
2018-11-03T18:18:41.076Z,15.53
2018-11-03T18:21:08.766Z,22.23
2018-11-03T18:23:36.207Z,21.20
2018-11-03T18:26:03.771Z,17.67
2018-11-03T18:28:31.260Z,18.27
2018-11-03T18:30:58.865Z,19.93
2018-11-03T18:33:26.563Z,18.93
2018-11-03T18:35:53.847Z,21.40
2018-11-03T18:38:21.419Z,20.17
2018-11-03T18:40:48.855Z,17.37
2018-11-03T18:43:16.323Z,20.90
2018-11-03T18:45:43.907Z,25.23
2018-11-03T18:48:11.571Z,20.93
2018-11-03T18:50:39.287Z,17.53
2018-11-03T18:53:06.751Z,20.73
2018-11-03T18:55:34.281Z,20.90
2018-11-03T18:58:01.808Z,21.90
2018-11-03T19:00:29.332Z,22.00
2018-11-03T19:02:56.808Z,19.10
2018-11-03T19:05:24.257Z,18.30
2018-11-03T19:07:51.811Z,17.60
2018-11-03T19:10:19.401Z,21.50
2018-11-03T19:12:46.851Z,17.53
2018-11-03T19:15:14.379Z,36.47
2018-11-03T19:17:41.881Z,19.47
2018-11-03T19:20:11.651Z,17.00
2018-11-03T19:22:39.567Z,21.50
2018-11-03T19:25:08.783Z,17.80
2018-11-03T19:27:36.476Z,17.00
2018-11-03T19:30:05.441Z,18.63
2018-11-03T19:32:33.226Z,17.67
2018-11-03T19:35:00.846Z,20.33
2018-11-03T19:37:28.405Z,17.90
2018-11-03T19:39:56.044Z,21.40
2018-11-03T19:42:23.621Z,18.20
2018-11-03T19:44:51.049Z,19.47
2018-11-03T19:47:18.495Z,23.33
2018-11-03T19:49:46.126Z,19.50
2018-11-03T19:52:13.651Z,19.43
2018-11-03T19:54:41.173Z,18.73
2018-11-03T19:57:08.747Z,23.80
2018-11-03T19:59:36.259Z,17.00
2018-11-03T20:02:03.771Z,20.60
2018-11-03T20:04:31.293Z,18.73
2018-11-03T20:06:58.775Z,23.33
2018-11-03T20:09:26.256Z,22.73
2018-11-03T20:11:53.802Z,16.07
2018-11-03T20:14:21.284Z,18.27
2018-11-03T20:16:48.927Z,16.60
2018-11-03T20:19:16.504Z,17.00
2018-11-03T20:21:44.026Z,18.10
2018-11-03T20:24:11.491Z,21.13
2018-11-03T20:26:39.350Z,17.60
2018-11-03T20:29:07.486Z,19.60
2018-11-03T20:31:35.031Z,19.10
2018-11-03T20:34:02.711Z,20.10
2018-11-03T20:36:30.199Z,15.97
2018-11-03T20:38:57.726Z,19.63
2018-11-03T20:41:25.429Z,17.43
2018-11-03T20:43:53.069Z,18.87
2018-11-03T20:46:20.568Z,17.10
2018-11-03T20:48:48.187Z,17.07
2018-11-03T20:51:15.780Z,22.07
2018-11-03T20:53:43.241Z,20.73
2018-11-03T20:56:10.782Z,23.30
2018-11-03T20:58:38.435Z,19.87
2018-11-03T21:01:06.180Z,20.90
2018-11-03T21:03:33.751Z,19.23
2018-11-03T21:06:01.392Z,18.80
2018-11-03T21:08:28.949Z,19.60
2018-11-03T21:10:56.732Z,24.60
2018-11-03T21:13:24.277Z,21.37
2018-11-03T21:15:51.726Z,20.03
2018-11-03T21:18:19.213Z,20.47
2018-11-03T21:20:46.729Z,24.63
2018-11-03T21:23:14.444Z,20.17
2018-11-03T21:25:41.985Z,20.90
2018-11-03T21:28:09.532Z,18.73
2018-11-03T21:30:37.047Z,20.90
2018-11-03T21:33:05.025Z,21.27
2018-11-03T21:35:32.313Z,21.07
2018-11-03T21:37:59.910Z,21.53
2018-11-03T21:40:27.561Z,20.87
2018-11-03T21:42:55.271Z,21.80
2018-11-03T21:45:22.913Z,19.40
2018-11-03T21:47:50.515Z,21.60
2018-11-03T21:50:17.975Z,17.57
2018-11-03T21:57:48.926Z,20.30
2018-11-03T22:00:16.578Z,19.20
2018-11-03T22:02:44.035Z,23.43
2018-11-03T22:05:12.864Z,18.17
2018-11-03T22:07:40.824Z,19.00
2018-11-03T22:10:08.997Z,19.50
2018-11-03T22:12:36.666Z,22.03
2018-11-03T22:15:04.568Z,25.03
2018-11-03T22:17:32.094Z,26.00
2018-11-03T22:19:59.565Z,20.70
2018-11-03T22:22:27.031Z,16.83
2018-11-03T22:24:54.557Z,19.77
2018-11-03T22:27:22.114Z,19.63
2018-11-03T22:29:49.647Z,22.93
2018-11-03T22:32:17.243Z,19.73
2018-11-03T22:34:44.723Z,28.90
2018-11-03T22:37:12.341Z,33.70
2018-11-03T22:39:40.512Z,18.73
2018-11-03T22:42:08.276Z,17.87
2018-11-03T22:44:35.647Z,19.13
2018-11-03T22:47:09.823Z,18.80
2018-11-03T22:49:37.245Z,19.47
2018-11-03T22:52:06.013Z,20.43
2018-11-03T22:54:34.400Z,23.20
2018-11-03T22:57:01.971Z,24.83
2018-11-03T22:59:29.565Z,23.60
2018-11-03T23:01:57.405Z,22.07
2018-11-03T23:04:24.880Z,17.83
2018-11-03T23:06:52.376Z,18.57
2018-11-03T23:09:19.830Z,25.43
2018-11-03T23:11:47.290Z,21.00
2018-11-03T23:14:14.776Z,23.03
2018-11-03T23:16:42.286Z,23.33
2018-11-03T23:19:09.992Z,25.57
2018-11-03T23:21:37.494Z,22.50
2018-11-03T23:24:05.850Z,23.67
2018-11-03T23:26:33.581Z,22.57
2018-11-03T23:29:01.154Z,23.37
2018-11-03T23:31:28.608Z,21.90
2018-11-03T23:33:56.068Z,25.40
2018-11-03T23:36:23.570Z,21.23
2018-11-03T23:38:51.008Z,22.03
2018-11-03T23:41:18.524Z,18.83
2018-11-03T23:48:48.741Z,24.17
2018-11-03T23:51:16.390Z,22.77
2018-11-03T23:53:43.836Z,21.30
2018-11-03T23:56:11.326Z,20.03
2018-11-03T23:58:38.776Z,24.07
